sensor_id;sensor_type;location;lat;lon;timestamp;temperature;humidity
21169;DHT22;10742;51.816;8.662;2023-02-28T00:01:28;4.50;79.00
21169;DHT22;10742;51.816;8.662;2023-02-28T00:04:31;4.40;79.00
21169;DHT22;10742;51.816;8.662;2023-02-28T00:07:34;4.40;79.10
21169;DHT22;10742;51.816;8.662;2023-02-28T00:10:37;4.40;80.00
21169;DHT22;10742;51.816;8.662;2023-02-28T00:13:45;4.40;79.30
21169;DHT22;10742;51.816;8.662;2023-02-28T00:16:48;4.40;79.50
21169;DHT22;10742;51.816;8.662;2023-02-28T00:19:51;4.40;79.40
21169;DHT22;10742;51.816;8.662;2023-02-28T00:23:04;4.40;79.50
21169;DHT22;10742;51.816;8.662;2023-02-28T00:26:10;4.40;79.60
21169;DHT22;10742;51.816;8.662;2023-02-28T00:29:17;4.40;79.60
21169;DHT22;10742;51.816;8.662;2023-02-28T00:32:19;4.50;79.60
21169;DHT22;10742;51.816;8.662;2023-02-28T00:35:22;4.50;79.70
21169;DHT22;10742;51.816;8.662;2023-02-28T00:38:56;4.50;79.80
21169;DHT22;10742;51.816;8.662;2023-02-28T00:41:59;4.50;80.70
21169;DHT22;10742;51.816;8.662;2023-02-28T00:45:11;4.50;79.80
21169;DHT22;10742;51.816;8.662;2023-02-28T00:48:13;4.50;79.70
21169;DHT22;10742;51.816;8.662;2023-02-28T00:51:16;4.50;79.60
21169;DHT22;10742;51.816;8.662;2023-02-28T00:54:19;4.50;79.70
21169;DHT22;10742;51.816;8.662;2023-02-28T00:57:22;4.50;79.70
21169;DHT22;10742;51.816;8.662;2023-02-28T01:00:24;4.40;79.60
21169;DHT22;10742;51.816;8.662;2023-02-28T01:03:27;4.40;79.60
21169;DHT22;10742;51.816;8.662;2023-02-28T01:06:30;4.40;79.60
21169;DHT22;10742;51.816;8.662;2023-02-28T01:09:33;4.40;79.60
21169;DHT22;10742;51.816;8.662;2023-02-28T01:12:36;4.40;79.50
21169;DHT22;10742;51.816;8.662;2023-02-28T01:15:55;4.30;79.40
21169;DHT22;10742;51.816;8.662;2023-02-28T01:19:02;4.30;79.50
21169;DHT22;10742;51.816;8.662;2023-02-28T01:22:07;4.20;79.30
21169;DHT22;10742;51.816;8.662;2023-02-28T01:25:13;4.20;79.20
21169;DHT22;10742;51.816;8.662;2023-02-28T01:28:16;4.10;79.20
21169;DHT22;10742;51.816;8.662;2023-02-28T01:31:20;4.00;79.30
21169;DHT22;10742;51.816;8.662;2023-02-28T01:34:23;4.00;79.40
21169;DHT22;10742;51.816;8.662;2023-02-28T01:37:26;3.90;79.50
21169;DHT22;10742;51.816;8.662;2023-02-28T01:40:29;3.90;79.70
21169;DHT22;10742;51.816;8.662;2023-02-28T01:43:53;3.80;79.90
21169;DHT22;10742;51.816;8.662;2023-02-28T01:46:56;3.70;80.40
21169;DHT22;10742;51.816;8.662;2023-02-28T01:49:59;3.70;80.20
21169;DHT22;10742;51.816;8.662;2023-02-28T01:53:07;3.70;80.20
21169;DHT22;10742;51.816;8.662;2023-02-28T01:56:13;3.70;80.10
21169;DHT22;10742;51.816;8.662;2023-02-28T01:59:48;3.70;80.30
21169;DHT22;10742;51.816;8.662;2023-02-28T02:02:58;3.60;80.50
21169;DHT22;10742;51.816;8.662;2023-02-28T02:06:02;3.60;80.10
21169;DHT22;10742;51.816;8.662;2023-02-28T02:09:05;3.60;80.00
21169;DHT22;10742;51.816;8.662;2023-02-28T02:33:09;3.20;80.30
21169;DHT22;10742;51.816;8.662;2023-02-28T02:39:44;3.00;80.00
21169;DHT22;10742;51.816;8.662;2023-02-28T02:46:12;2.90;80.60
21169;DHT22;10742;51.816;8.662;2023-02-28T02:49:30;2.80;80.80
21169;DHT22;10742;51.816;8.662;2023-02-28T02:52:38;2.80;81.30
21169;DHT22;10742;51.816;8.662;2023-02-28T02:55:44;2.70;81.30
21169;DHT22;10742;51.816;8.662;2023-02-28T02:59:01;2.70;81.50
21169;DHT22;10742;51.816;8.662;2023-02-28T03:02:19;2.70;81.80
21169;DHT22;10742;51.816;8.662;2023-02-28T03:05:33;2.70;81.50
21169;DHT22;10742;51.816;8.662;2023-02-28T03:08:38;2.70;81.70
21169;DHT22;10742;51.816;8.662;2023-02-28T03:11:41;2.70;81.50
21169;DHT22;10742;51.816;8.662;2023-02-28T03:18:36;2.80;81.90
21169;DHT22;10742;51.816;8.662;2023-02-28T03:25:28;2.80;81.50
21169;DHT22;10742;51.816;8.662;2023-02-28T03:35:21;2.70;81.60
21169;DHT22;10742;51.816;8.662;2023-02-28T03:38:41;2.70;81.50
21169;DHT22;10742;51.816;8.662;2023-02-28T03:41:50;2.70;81.70
21169;DHT22;10742;51.816;8.662;2023-02-28T03:45:01;2.70;81.50
21169;DHT22;10742;51.816;8.662;2023-02-28T03:48:15;2.70;81.30
21169;DHT22;10742;51.816;8.662;2023-02-28T03:51:20;2.60;81.30
21169;DHT22;10742;51.816;8.662;2023-02-28T03:54:35;2.60;81.20
21169;DHT22;10742;51.816;8.662;2023-02-28T04:04:29;2.50;81.60
21169;DHT22;10742;51.816;8.662;2023-02-28T04:07:33;2.40;81.40
21169;DHT22;10742;51.816;8.662;2023-02-28T04:10:37;2.40;81.50
21169;DHT22;10742;51.816;8.662;2023-02-28T04:13:40;2.40;81.60
21169;DHT22;10742;51.816;8.662;2023-02-28T04:16:42;2.40;81.60
21169;DHT22;10742;51.816;8.662;2023-02-28T04:19:48;2.40;81.60
21169;DHT22;10742;51.816;8.662;2023-02-28T04:22:52;2.40;81.60
21169;DHT22;10742;51.816;8.662;2023-02-28T04:25:55;2.40;81.50
21169;DHT22;10742;51.816;8.662;2023-02-28T04:28:58;2.30;81.50
21169;DHT22;10742;51.816;8.662;2023-02-28T04:32:08;2.40;81.60
21169;DHT22;10742;51.816;8.662;2023-02-28T04:35:11;2.30;81.50
21169;DHT22;10742;51.816;8.662;2023-02-28T04:38:14;2.30;81.50
21169;DHT22;10742;51.816;8.662;2023-02-28T04:41:16;2.30;81.50
21169;DHT22;10742;51.816;8.662;2023-02-28T04:44:21;2.30;81.50
21169;DHT22;10742;51.816;8.662;2023-02-28T04:47:24;2.20;81.40
21169;DHT22;10742;51.816;8.662;2023-02-28T04:50:26;2.20;81.40
21169;DHT22;10742;51.816;8.662;2023-02-28T04:53:29;2.20;81.20
21169;DHT22;10742;51.816;8.662;2023-02-28T04:56:32;2.20;81.90
21169;DHT22;10742;51.816;8.662;2023-02-28T04:59:34;2.10;81.00
21169;DHT22;10742;51.816;8.662;2023-02-28T05:02:38;2.10;81.00
21169;DHT22;10742;51.816;8.662;2023-02-28T05:05:41;2.00;80.90
21169;DHT22;10742;51.816;8.662;2023-02-28T05:08:44;1.90;81.00
21169;DHT22;10742;51.816;8.662;2023-02-28T05:11:49;1.90;81.30
21169;DHT22;10742;51.816;8.662;2023-02-28T05:14:52;1.80;81.20
21169;DHT22;10742;51.816;8.662;2023-02-28T05:17:54;1.70;82.20
21169;DHT22;10742;51.816;8.662;2023-02-28T05:20:57;1.70;81.60
21169;DHT22;10742;51.816;8.662;2023-02-28T05:24:03;1.60;81.80
21169;DHT22;10742;51.816;8.662;2023-02-28T05:27:07;1.60;81.80
21169;DHT22;10742;51.816;8.662;2023-02-28T05:30:10;1.60;81.60
21169;DHT22;10742;51.816;8.662;2023-02-28T05:33:13;1.50;81.50
21169;DHT22;10742;51.816;8.662;2023-02-28T05:36:17;1.50;81.80
21169;DHT22;10742;51.816;8.662;2023-02-28T05:39:22;1.50;81.90
21169;DHT22;10742;51.816;8.662;2023-02-28T05:42:25;1.40;82.00
21169;DHT22;10742;51.816;8.662;2023-02-28T05:45:28;1.40;82.00
21169;DHT22;10742;51.816;8.662;2023-02-28T05:48:31;1.50;82.10
21169;DHT22;10742;51.816;8.662;2023-02-28T05:51:34;1.50;82.10
21169;DHT22;10742;51.816;8.662;2023-02-28T05:54:38;1.50;81.90
21169;DHT22;10742;51.816;8.662;2023-02-28T05:57:44;1.40;81.80
21169;DHT22;10742;51.816;8.662;2023-02-28T06:00:48;1.40;82.10
21169;DHT22;10742;51.816;8.662;2023-02-28T06:03:53;1.40;81.90
21169;DHT22;10742;51.816;8.662;2023-02-28T06:06:56;1.40;81.90
21169;DHT22;10742;51.816;8.662;2023-02-28T06:10:00;1.30;81.90
21169;DHT22;10742;51.816;8.662;2023-02-28T06:13:04;1.30;81.90
21169;DHT22;10742;51.816;8.662;2023-02-28T06:16:10;1.30;82.10
21169;DHT22;10742;51.816;8.662;2023-02-28T06:19:15;1.30;82.20
21169;DHT22;10742;51.816;8.662;2023-02-28T06:22:39;1.20;82.10
21169;DHT22;10742;51.816;8.662;2023-02-28T06:25:45;1.20;82.70
21169;DHT22;10742;51.816;8.662;2023-02-28T06:28:48;1.20;82.50
21169;DHT22;10742;51.816;8.662;2023-02-28T06:31:50;1.20;82.70
21169;DHT22;10742;51.816;8.662;2023-02-28T06:34:53;1.20;82.70
21169;DHT22;10742;51.816;8.662;2023-02-28T06:38:06;1.20;82.70
21169;DHT22;10742;51.816;8.662;2023-02-28T06:41:09;1.20;83.40
21169;DHT22;10742;51.816;8.662;2023-02-28T06:44:16;1.30;84.30
21169;DHT22;10742;51.816;8.662;2023-02-28T06:47:19;1.30;83.60
21169;DHT22;10742;51.816;8.662;2023-02-28T06:50:22;1.30;83.00
21169;DHT22;10742;51.816;8.662;2023-02-28T06:53:24;1.30;82.80
21169;DHT22;10742;51.816;8.662;2023-02-28T06:56:27;1.30;82.80
21169;DHT22;10742;51.816;8.662;2023-02-28T06:59:30;1.30;82.80
21169;DHT22;10742;51.816;8.662;2023-02-28T07:02:34;1.30;83.00
21169;DHT22;10742;51.816;8.662;2023-02-28T07:05:38;1.30;83.20
21169;DHT22;10742;51.816;8.662;2023-02-28T07:08:42;1.40;83.40
21169;DHT22;10742;51.816;8.662;2023-02-28T07:11:44;1.50;83.50
21169;DHT22;10742;51.816;8.662;2023-02-28T07:14:47;1.60;83.40
21169;DHT22;10742;51.816;8.662;2023-02-28T07:17:49;1.60;83.40
21169;DHT22;10742;51.816;8.662;2023-02-28T07:20:53;1.70;83.50
21169;DHT22;10742;51.816;8.662;2023-02-28T07:23:55;1.80;83.70
21169;DHT22;10742;51.816;8.662;2023-02-28T07:26:59;1.90;83.90
21169;DHT22;10742;51.816;8.662;2023-02-28T07:30:02;2.00;84.10
21169;DHT22;10742;51.816;8.662;2023-02-28T07:33:20;2.10;84.40
21169;DHT22;10742;51.816;8.662;2023-02-28T07:36:23;2.30;84.80
21169;DHT22;10742;51.816;8.662;2023-02-28T07:39:25;2.40;84.90
21169;DHT22;10742;51.816;8.662;2023-02-28T07:42:31;2.60;85.10
21169;DHT22;10742;51.816;8.662;2023-02-28T07:45:42;2.80;85.20
21169;DHT22;10742;51.816;8.662;2023-02-28T07:48:47;3.10;85.10
21169;DHT22;10742;51.816;8.662;2023-02-28T07:51:51;3.30;84.90
21169;DHT22;10742;51.816;8.662;2023-02-28T07:54:53;3.50;84.80
21169;DHT22;10742;51.816;8.662;2023-02-28T07:57:57;3.70;84.30
21169;DHT22;10742;51.816;8.662;2023-02-28T08:01:06;3.90;84.00
21169;DHT22;10742;51.816;8.662;2023-02-28T08:04:12;4.00;83.60
21169;DHT22;10742;51.816;8.662;2023-02-28T08:07:16;4.20;83.60
21169;DHT22;10742;51.816;8.662;2023-02-28T08:10:19;4.30;83.10
21169;DHT22;10742;51.816;8.662;2023-02-28T08:13:22;4.40;82.80
21169;DHT22;10742;51.816;8.662;2023-02-28T08:16:25;4.50;82.60
21169;DHT22;10742;51.816;8.662;2023-02-28T08:19:28;4.60;82.40
21169;DHT22;10742;51.816;8.662;2023-02-28T08:22:31;4.70;82.30
21169;DHT22;10742;51.816;8.662;2023-02-28T08:25:33;4.80;82.20
21169;DHT22;10742;51.816;8.662;2023-02-28T08:28:36;5.00;82.20
21169;DHT22;10742;51.816;8.662;2023-02-28T08:31:39;5.10;82.00
21169;DHT22;10742;51.816;8.662;2023-02-28T08:34:44;5.20;81.70
21169;DHT22;10742;51.816;8.662;2023-02-28T08:38:08;5.40;81.60
21169;DHT22;10742;51.816;8.662;2023-02-28T08:41:29;5.50;81.50
21169;DHT22;10742;51.816;8.662;2023-02-28T08:44:53;5.70;81.20
21169;DHT22;10742;51.816;8.662;2023-02-28T08:47:59;5.80;80.90
21169;DHT22;10742;51.816;8.662;2023-02-28T08:51:13;5.90;80.70
21169;DHT22;10742;51.816;8.662;2023-02-28T08:54:16;6.00;80.00
21169;DHT22;10742;51.816;8.662;2023-02-28T08:57:21;6.00;80.30
21169;DHT22;10742;51.816;8.662;2023-02-28T09:00:24;6.20;80.20
21169;DHT22;10742;51.816;8.662;2023-02-28T09:03:35;6.20;79.90
21169;DHT22;10742;51.816;8.662;2023-02-28T09:06:38;6.30;79.60
21169;DHT22;10742;51.816;8.662;2023-02-28T09:09:41;6.40;79.40
21169;DHT22;10742;51.816;8.662;2023-02-28T09:13:06;6.50;79.10
21169;DHT22;10742;51.816;8.662;2023-02-28T09:16:37;6.60;78.40
21169;DHT22;10742;51.816;8.662;2023-02-28T09:19:40;6.70;77.70
21169;DHT22;10742;51.816;8.662;2023-02-28T09:22:48;6.80;77.60
21169;DHT22;10742;51.816;8.662;2023-02-28T09:26:29;6.80;76.50
21169;DHT22;10742;51.816;8.662;2023-02-28T09:30:00;6.90;76.90
21169;DHT22;10742;51.816;8.662;2023-02-28T09:33:13;6.90;76.00
21169;DHT22;10742;51.816;8.662;2023-02-28T09:36:16;6.90;76.10
21169;DHT22;10742;51.816;8.662;2023-02-28T09:39:19;7.00;75.80
21169;DHT22;10742;51.816;8.662;2023-02-28T09:42:27;7.00;75.70
21169;DHT22;10742;51.816;8.662;2023-02-28T09:45:37;7.10;75.50
21169;DHT22;10742;51.816;8.662;2023-02-28T09:48:45;7.10;75.20
21169;DHT22;10742;51.816;8.662;2023-02-28T09:51:52;7.20;75.50
21169;DHT22;10742;51.816;8.662;2023-02-28T09:54:58;7.20;75.20
21169;DHT22;10742;51.816;8.662;2023-02-28T09:58:02;7.30;75.80
21169;DHT22;10742;51.816;8.662;2023-02-28T10:01:27;7.30;74.90
21169;DHT22;10742;51.816;8.662;2023-02-28T10:04:42;7.30;74.50
21169;DHT22;10742;51.816;8.662;2023-02-28T10:08:13;7.40;75.10
21169;DHT22;10742;51.816;8.662;2023-02-28T10:11:36;7.40;74.40
21169;DHT22;10742;51.816;8.662;2023-02-28T10:15:00;7.40;74.20
21169;DHT22;10742;51.816;8.662;2023-02-28T10:18:34;7.40;74.20
21169;DHT22;10742;51.816;8.662;2023-02-28T10:22:23;7.30;74.30
21169;DHT22;10742;51.816;8.662;2023-02-28T10:26:12;7.30;74.20
21169;DHT22;10742;51.816;8.662;2023-02-28T10:29:15;7.40;74.80
21169;DHT22;10742;51.816;8.662;2023-02-28T10:32:21;7.40;75.60
21169;DHT22;10742;51.816;8.662;2023-02-28T10:35:26;7.50;75.40
21169;DHT22;10742;51.816;8.662;2023-02-28T10:38:35;7.60;76.10
21169;DHT22;10742;51.816;8.662;2023-02-28T10:41:42;7.70;74.80
21169;DHT22;10742;51.816;8.662;2023-02-28T10:44:45;7.70;74.80
21169;DHT22;10742;51.816;8.662;2023-02-28T10:50:58;7.90;75.30
21169;DHT22;10742;51.816;8.662;2023-02-28T10:54:02;7.90;75.70
21169;DHT22;10742;51.816;8.662;2023-02-28T10:57:19;8.00;75.50
21169;DHT22;10742;51.816;8.662;2023-02-28T11:00:24;8.10;75.30
21169;DHT22;10742;51.816;8.662;2023-02-28T11:03:33;8.20;75.10
21169;DHT22;10742;51.816;8.662;2023-02-28T11:06:36;8.20;74.90
21169;DHT22;10742;51.816;8.662;2023-02-28T11:09:40;8.30;75.10
21169;DHT22;10742;51.816;8.662;2023-02-28T11:12:44;8.40;74.90
21169;DHT22;10742;51.816;8.662;2023-02-28T11:15:58;8.50;73.60
21169;DHT22;10742;51.816;8.662;2023-02-28T11:19:06;8.70;74.30
21169;DHT22;10742;51.816;8.662;2023-02-28T11:22:23;8.70;71.90
21169;DHT22;10742;51.816;8.662;2023-02-28T11:25:32;8.80;72.20
21169;DHT22;10742;51.816;8.662;2023-02-28T11:28:39;8.80;72.50
21169;DHT22;10742;51.816;8.662;2023-02-28T11:31:42;9.00;73.10
21169;DHT22;10742;51.816;8.662;2023-02-28T11:34:46;9.10;73.30
21169;DHT22;10742;51.816;8.662;2023-02-28T11:37:49;9.30;73.00
21169;DHT22;10742;51.816;8.662;2023-02-28T11:47:17;9.50;69.40
21169;DHT22;10742;51.816;8.662;2023-02-28T12:00:40;9.40;69.60
21169;DHT22;10742;51.816;8.662;2023-02-28T12:10:15;9.30;67.80
21169;DHT22;10742;51.816;8.662;2023-02-28T12:27:14;9.30;66.50
21169;DHT22;10742;51.816;8.662;2023-02-28T12:30:30;9.30;66.90
21169;DHT22;10742;51.816;8.662;2023-02-28T12:33:36;9.30;66.50
21169;DHT22;10742;51.816;8.662;2023-02-28T12:36:41;9.20;66.70
21169;DHT22;10742;51.816;8.662;2023-02-28T12:39:49;9.20;67.40
21169;DHT22;10742;51.816;8.662;2023-02-28T12:43:12;9.20;67.80
21169;DHT22;10742;51.816;8.662;2023-02-28T12:50:16;9.40;68.60
21169;DHT22;10742;51.816;8.662;2023-02-28T12:53:35;9.50;66.70
21169;DHT22;10742;51.816;8.662;2023-02-28T13:00:20;9.40;66.90
21169;DHT22;10742;51.816;8.662;2023-02-28T13:10:04;9.10;66.60
21169;DHT22;10742;51.816;8.662;2023-02-28T13:13:11;9.00;66.70
21169;DHT22;10742;51.816;8.662;2023-02-28T13:16:16;9.00;66.80
21169;DHT22;10742;51.816;8.662;2023-02-28T13:19:23;8.90;67.10
21169;DHT22;10742;51.816;8.662;2023-02-28T13:28:59;9.10;67.20
21169;DHT22;10742;51.816;8.662;2023-02-28T13:35:35;9.20;67.40
21169;DHT22;10742;51.816;8.662;2023-02-28T13:38:49;9.30;66.50
21169;DHT22;10742;51.816;8.662;2023-02-28T13:48:27;9.50;65.70
21169;DHT22;10742;51.816;8.662;2023-02-28T13:51:43;9.40;65.00
21169;DHT22;10742;51.816;8.662;2023-02-28T13:58:17;9.40;65.50
21169;DHT22;10742;51.816;8.662;2023-02-28T14:08:18;9.30;64.80
21169;DHT22;10742;51.816;8.662;2023-02-28T14:11:38;9.30;65.00
21169;DHT22;10742;51.816;8.662;2023-02-28T14:18:03;9.30;65.90
21169;DHT22;10742;51.816;8.662;2023-02-28T14:21:34;9.30;65.60
21169;DHT22;10742;51.816;8.662;2023-02-28T14:39:05;9.50;65.30
21169;DHT22;10742;51.816;8.662;2023-02-28T14:42:34;9.60;65.30
21169;DHT22;10742;51.816;8.662;2023-02-28T14:45:36;9.50;64.40
21169;DHT22;10742;51.816;8.662;2023-02-28T14:48:39;9.50;65.50
21169;DHT22;10742;51.816;8.662;2023-02-28T14:51:42;9.50;65.30
21169;DHT22;10742;51.816;8.662;2023-02-28T14:54:46;9.50;65.90
21169;DHT22;10742;51.816;8.662;2023-02-28T14:57:58;9.50;64.50
21169;DHT22;10742;51.816;8.662;2023-02-28T15:01:03;9.50;63.90
21169;DHT22;10742;51.816;8.662;2023-02-28T15:04:22;9.50;65.20
21169;DHT22;10742;51.816;8.662;2023-02-28T15:07:28;9.50;64.20
21169;DHT22;10742;51.816;8.662;2023-02-28T15:10:44;9.50;63.20
21169;DHT22;10742;51.816;8.662;2023-02-28T15:13:53;9.50;62.40
21169;DHT22;10742;51.816;8.662;2023-02-28T15:17:01;9.40;63.00
21169;DHT22;10742;51.816;8.662;2023-02-28T15:20:04;9.40;63.50
21169;DHT22;10742;51.816;8.662;2023-02-28T15:23:07;9.40;63.10
21169;DHT22;10742;51.816;8.662;2023-02-28T15:26:20;9.30;63.20
21169;DHT22;10742;51.816;8.662;2023-02-28T15:29:28;9.30;63.30
21169;DHT22;10742;51.816;8.662;2023-02-28T15:32:37;9.30;63.30
21169;DHT22;10742;51.816;8.662;2023-02-28T15:35:41;9.20;63.50
21169;DHT22;10742;51.816;8.662;2023-02-28T15:38:44;9.30;64.00
21169;DHT22;10742;51.816;8.662;2023-02-28T15:41:52;9.30;64.00
21169;DHT22;10742;51.816;8.662;2023-02-28T15:44:54;9.30;64.00
21169;DHT22;10742;51.816;8.662;2023-02-28T15:47:57;9.30;63.70
21169;DHT22;10742;51.816;8.662;2023-02-28T15:54:16;9.30;63.40
21169;DHT22;10742;51.816;8.662;2023-02-28T15:57:25;9.30;62.80
21169;DHT22;10742;51.816;8.662;2023-02-28T16:00:29;9.20;63.00
21169;DHT22;10742;51.816;8.662;2023-02-28T16:03:43;9.10;63.30
21169;DHT22;10742;51.816;8.662;2023-02-28T16:07:21;9.10;63.30
21169;DHT22;10742;51.816;8.662;2023-02-28T16:10:18;9.10;63.70
21169;DHT22;10742;51.816;8.662;2023-02-28T16:13:29;9.00;63.60
21169;DHT22;10742;51.816;8.662;2023-02-28T16:16:32;9.00;63.40
21169;DHT22;10742;51.816;8.662;2023-02-28T16:19:36;9.00;63.70
21169;DHT22;10742;51.816;8.662;2023-02-28T16:22:39;8.90;63.80
21169;DHT22;10742;51.816;8.662;2023-02-28T16:25:44;8.90;63.80
21169;DHT22;10742;51.816;8.662;2023-02-28T16:28:52;8.90;63.80
21169;DHT22;10742;51.816;8.662;2023-02-28T16:31:56;8.80;63.80
21169;DHT22;10742;51.816;8.662;2023-02-28T16:34:58;8.80;63.90
21169;DHT22;10742;51.816;8.662;2023-02-28T16:38:01;8.80;63.90
21169;DHT22;10742;51.816;8.662;2023-02-28T16:41:05;8.70;64.00
21169;DHT22;10742;51.816;8.662;2023-02-28T16:44:27;8.70;64.20
21169;DHT22;10742;51.816;8.662;2023-02-28T16:47:30;8.70;65.00
21169;DHT22;10742;51.816;8.662;2023-02-28T16:50:35;8.70;63.90
21169;DHT22;10742;51.816;8.662;2023-02-28T16:53:37;8.60;63.90
21169;DHT22;10742;51.816;8.662;2023-02-28T16:56:44;8.50;64.00
21169;DHT22;10742;51.816;8.662;2023-02-28T16:59:48;8.50;63.90
21169;DHT22;10742;51.816;8.662;2023-02-28T17:02:53;8.40;64.10
21169;DHT22;10742;51.816;8.662;2023-02-28T17:05:56;8.40;64.00
21169;DHT22;10742;51.816;8.662;2023-02-28T17:08:59;8.40;64.10
21169;DHT22;10742;51.816;8.662;2023-02-28T17:12:02;8.30;64.10
21169;DHT22;10742;51.816;8.662;2023-02-28T17:15:06;8.20;64.10
21169;DHT22;10742;51.816;8.662;2023-02-28T17:18:14;8.10;64.10
21169;DHT22;10742;51.816;8.662;2023-02-28T17:21:18;8.10;64.10
21169;DHT22;10742;51.816;8.662;2023-02-28T17:24:20;8.00;64.30
21169;DHT22;10742;51.816;8.662;2023-02-28T17:27:31;7.90;64.40
21169;DHT22;10742;51.816;8.662;2023-02-28T17:30:35;7.90;64.40
21169;DHT22;10742;51.816;8.662;2023-02-28T17:33:38;7.80;64.50
21169;DHT22;10742;51.816;8.662;2023-02-28T17:36:41;7.70;64.50
21169;DHT22;10742;51.816;8.662;2023-02-28T17:39:43;7.70;64.60
21169;DHT22;10742;51.816;8.662;2023-02-28T17:42:46;7.60;64.60
21169;DHT22;10742;51.816;8.662;2023-02-28T17:45:49;7.50;64.70
21169;DHT22;10742;51.816;8.662;2023-02-28T17:48:52;7.50;64.80
21169;DHT22;10742;51.816;8.662;2023-02-28T17:51:55;7.40;64.90
21169;DHT22;10742;51.816;8.662;2023-02-28T17:54:58;7.40;65.10
21169;DHT22;10742;51.816;8.662;2023-02-28T17:58:02;7.40;65.20
21169;DHT22;10742;51.816;8.662;2023-02-28T18:01:08;7.30;65.10
21169;DHT22;10742;51.816;8.662;2023-02-28T18:04:12;7.30;65.10
21169;DHT22;10742;51.816;8.662;2023-02-28T18:07:14;7.20;65.10
21169;DHT22;10742;51.816;8.662;2023-02-28T18:10:21;7.10;66.00
21169;DHT22;10742;51.816;8.662;2023-02-28T18:13:33;7.10;65.40
21169;DHT22;10742;51.816;8.662;2023-02-28T18:16:41;7.00;65.50
21169;DHT22;10742;51.816;8.662;2023-02-28T18:19:47;6.90;65.60
21169;DHT22;10742;51.816;8.662;2023-02-28T18:22:51;6.80;65.70
21169;DHT22;10742;51.816;8.662;2023-02-28T18:25:53;6.70;65.90
21169;DHT22;10742;51.816;8.662;2023-02-28T18:28:56;6.70;66.00
21169;DHT22;10742;51.816;8.662;2023-02-28T18:31:59;6.60;66.20
21169;DHT22;10742;51.816;8.662;2023-02-28T18:35:03;6.50;66.20
21169;DHT22;10742;51.816;8.662;2023-02-28T18:38:18;6.50;66.40
21169;DHT22;10742;51.816;8.662;2023-02-28T18:41:22;6.50;66.60
21169;DHT22;10742;51.816;8.662;2023-02-28T18:44:36;6.40;66.50
21169;DHT22;10742;51.816;8.662;2023-02-28T18:47:39;6.40;66.60
21169;DHT22;10742;51.816;8.662;2023-02-28T18:50:42;6.30;66.60
21169;DHT22;10742;51.816;8.662;2023-02-28T18:53:54;6.30;66.70
21169;DHT22;10742;51.816;8.662;2023-02-28T18:57:17;6.20;66.80
21169;DHT22;10742;51.816;8.662;2023-02-28T19:00:20;6.10;66.80
21169;DHT22;10742;51.816;8.662;2023-02-28T19:03:24;6.10;66.90
21169;DHT22;10742;51.816;8.662;2023-02-28T19:06:30;6.10;67.10
21169;DHT22;10742;51.816;8.662;2023-02-28T19:09:33;6.00;67.20
21169;DHT22;10742;51.816;8.662;2023-02-28T19:12:36;6.00;67.20
21169;DHT22;10742;51.816;8.662;2023-02-28T19:15:40;6.00;67.40
21169;DHT22;10742;51.816;8.662;2023-02-28T19:18:42;5.90;67.40
21169;DHT22;10742;51.816;8.662;2023-02-28T19:21:45;5.80;67.40
21169;DHT22;10742;51.816;8.662;2023-02-28T19:24:52;5.80;67.50
21169;DHT22;10742;51.816;8.662;2023-02-28T19:27:54;5.70;67.70
21169;DHT22;10742;51.816;8.662;2023-02-28T19:30:57;5.60;67.80
21169;DHT22;10742;51.816;8.662;2023-02-28T19:34:00;5.60;68.00
21169;DHT22;10742;51.816;8.662;2023-02-28T19:37:06;5.50;68.20
21169;DHT22;10742;51.816;8.662;2023-02-28T19:40:10;5.50;68.40
21169;DHT22;10742;51.816;8.662;2023-02-28T19:43:15;5.50;68.90
21169;DHT22;10742;51.816;8.662;2023-02-28T19:46:32;5.50;68.70
21169;DHT22;10742;51.816;8.662;2023-02-28T19:49:34;5.50;69.50
21169;DHT22;10742;51.816;8.662;2023-02-28T19:52:37;5.50;68.70
21169;DHT22;10742;51.816;8.662;2023-02-28T19:55:41;5.60;68.90
21169;DHT22;10742;51.816;8.662;2023-02-28T19:58:56;5.50;68.90
21169;DHT22;10742;51.816;8.662;2023-02-28T20:01:59;5.50;68.90
21169;DHT22;10742;51.816;8.662;2023-02-28T20:05:01;5.50;68.90
21169;DHT22;10742;51.816;8.662;2023-02-28T20:08:04;5.50;68.90
21169;DHT22;10742;51.816;8.662;2023-02-28T20:11:12;5.50;68.80
21169;DHT22;10742;51.816;8.662;2023-02-28T20:14:14;5.50;68.90
21169;DHT22;10742;51.816;8.662;2023-02-28T20:17:18;5.50;68.80
21169;DHT22;10742;51.816;8.662;2023-02-28T20:20:21;5.50;68.90
21169;DHT22;10742;51.816;8.662;2023-02-28T20:23:26;5.50;69.00
21169;DHT22;10742;51.816;8.662;2023-02-28T20:26:28;5.50;69.10
21169;DHT22;10742;51.816;8.662;2023-02-28T20:29:33;5.40;69.10
21169;DHT22;10742;51.816;8.662;2023-02-28T20:32:36;5.50;69.30
21169;DHT22;10742;51.816;8.662;2023-02-28T20:35:40;5.40;69.20
21169;DHT22;10742;51.816;8.662;2023-02-28T20:38:43;5.40;69.20
21169;DHT22;10742;51.816;8.662;2023-02-28T20:41:45;5.40;69.40
21169;DHT22;10742;51.816;8.662;2023-02-28T20:44:48;5.30;69.40
21169;DHT22;10742;51.816;8.662;2023-02-28T20:47:51;5.40;69.60
21169;DHT22;10742;51.816;8.662;2023-02-28T20:50:55;5.30;69.60
21169;DHT22;10742;51.816;8.662;2023-02-28T20:53:58;5.30;69.60
21169;DHT22;10742;51.816;8.662;2023-02-28T20:57:01;5.30;69.80
21169;DHT22;10742;51.816;8.662;2023-02-28T21:00:06;5.20;69.70
21169;DHT22;10742;51.816;8.662;2023-02-28T21:03:20;5.20;70.00
21169;DHT22;10742;51.816;8.662;2023-02-28T21:06:26;5.20;69.80
21169;DHT22;10742;51.816;8.662;2023-02-28T21:09:30;5.10;69.80
21169;DHT22;10742;51.816;8.662;2023-02-28T21:12:32;5.10;69.80
21169;DHT22;10742;51.816;8.662;2023-02-28T21:15:36;5.00;69.90
21169;DHT22;10742;51.816;8.662;2023-02-28T21:18:41;4.90;69.80
21169;DHT22;10742;51.816;8.662;2023-02-28T21:21:45;4.80;69.90
21169;DHT22;10742;51.816;8.662;2023-02-28T21:24:50;4.80;70.10
21169;DHT22;10742;51.816;8.662;2023-02-28T21:27:52;4.70;70.30
21169;DHT22;10742;51.816;8.662;2023-02-28T21:31:19;4.60;70.60
21169;DHT22;10742;51.816;8.662;2023-02-28T21:34:41;4.60;70.90
21169;DHT22;10742;51.816;8.662;2023-02-28T21:38:03;4.60;70.90
21169;DHT22;10742;51.816;8.662;2023-02-28T21:41:08;4.50;71.10
21169;DHT22;10742;51.816;8.662;2023-02-28T21:44:12;4.50;71.20
21169;DHT22;10742;51.816;8.662;2023-02-28T21:47:27;4.50;71.20
21169;DHT22;10742;51.816;8.662;2023-02-28T21:50:31;4.50;71.30
21169;DHT22;10742;51.816;8.662;2023-02-28T21:53:36;4.50;71.40
21169;DHT22;10742;51.816;8.662;2023-02-28T21:56:39;4.40;71.50
21169;DHT22;10742;51.816;8.662;2023-02-28T21:59:43;4.40;71.50
21169;DHT22;10742;51.816;8.662;2023-02-28T22:02:45;4.40;71.50
21169;DHT22;10742;51.816;8.662;2023-02-28T22:05:49;4.40;71.60
21169;DHT22;10742;51.816;8.662;2023-02-28T22:08:54;4.40;71.80
21169;DHT22;10742;51.816;8.662;2023-02-28T22:12:00;4.40;71.90
21169;DHT22;10742;51.816;8.662;2023-02-28T22:15:02;4.30;71.90
21169;DHT22;10742;51.816;8.662;2023-02-28T22:18:08;4.30;72.00
21169;DHT22;10742;51.816;8.662;2023-02-28T22:21:12;4.30;72.00
21169;DHT22;10742;51.816;8.662;2023-02-28T22:24:15;4.30;72.10
21169;DHT22;10742;51.816;8.662;2023-02-28T22:27:24;4.30;72.10
21169;DHT22;10742;51.816;8.662;2023-02-28T22:30:27;4.20;72.10